sensor_id;sensor_type;location;lat;lon;timestamp;pressure;altitude;pressure_sealevel;temperature;humidity
70506;BME280;58032;49.820;6.274;2023-03-19T00:00:33;97259.63;;;7.70;100.00
70506;BME280;58032;49.820;6.274;2023-03-19T00:03:00;97257.06;;;7.76;100.00
70506;BME280;58032;49.820;6.274;2023-03-19T00:05:27;97252.47;;;7.69;100.00
70506;BME280;58032;49.820;6.274;2023-03-19T00:07:54;97263.66;;;7.69;100.00
70506;BME280;58032;49.820;6.274;2023-03-19T00:10:21;97265.91;;;7.49;100.00
70506;BME280;58032;49.820;6.274;2023-03-19T00:12:48;97270.03;;;7.31;100.00
70506;BME280;58032;49.820;6.274;2023-03-19T00:15:15;97271.66;;;7.16;100.00
70506;BME280;58032;49.820;6.274;2023-03-19T00:17:42;97272.47;;;6.87;100.00
70506;BME280;58032;49.820;6.274;2023-03-19T00:20:11;97282.19;;;6.82;100.00
70506;BME280;58032;49.820;6.274;2023-03-19T00:22:38;97280.16;;;6.70;100.00
70506;BME280;58032;49.820;6.274;2023-03-19T00:25:07;97284.06;;;6.72;100.00
70506;BME280;58032;49.820;6.274;2023-03-19T00:27:36;97288.84;;;6.72;100.00
70506;BME280;58032;49.820;6.274;2023-03-19T00:30:05;97291.38;;;6.37;100.00
70506;BME280;58032;49.820;6.274;2023-03-19T00:32:33;97303.97;;;6.45;100.00
70506;BME280;58032;49.820;6.274;2023-03-19T00:35:01;97294.94;;;6.54;100.00
70506;BME280;58032;49.820;6.274;2023-03-19T00:37:29;97291.09;;;6.47;100.00
70506;BME280;58032;49.820;6.274;2023-03-19T00:39:56;97299.13;;;6.45;100.00
70506;BME280;58032;49.820;6.274;2023-03-19T00:42:23;97300.53;;;6.54;100.00
70506;BME280;58032;49.820;6.274;2023-03-19T00:44:49;97302.47;;;6.57;100.00
70506;BME280;58032;49.820;6.274;2023-03-19T00:47:16;97304.44;;;6.56;100.00
70506;BME280;58032;49.820;6.274;2023-03-19T00:49:43;97296.06;;;6.56;100.00
70506;BME280;58032;49.820;6.274;2023-03-19T00:52:10;97298.09;;;6.56;100.00
70506;BME280;58032;49.820;6.274;2023-03-19T00:54:39;97303.97;;;6.45;100.00
70506;BME280;58032;49.820;6.274;2023-03-19T00:57:07;97307.13;;;6.30;100.00
70506;BME280;58032;49.820;6.274;2023-03-19T00:59:34;97314.00;;;6.26;100.00
70506;BME280;58032;49.820;6.274;2023-03-19T01:02:02;97312.88;;;6.23;100.00
70506;BME280;58032;49.820;6.274;2023-03-19T01:04:29;97311.56;;;6.11;100.00
70506;BME280;58032;49.820;6.274;2023-03-19T01:06:56;97314.97;;;6.02;100.00
70506;BME280;58032;49.820;6.274;2023-03-19T01:09:25;97324.91;;;6.04;100.00
70506;BME280;58032;49.820;6.274;2023-03-19T01:11:52;97324.06;;;6.07;100.00
70506;BME280;58032;49.820;6.274;2023-03-19T01:14:20;97314.47;;;6.08;100.00
70506;BME280;58032;49.820;6.274;2023-03-19T01:16:47;97324.50;;;6.05;100.00
70506;BME280;58032;49.820;6.274;2023-03-19T01:19:14;97328.28;;;5.95;100.00
70506;BME280;58032;49.820;6.274;2023-03-19T01:21:42;97331.69;;;5.86;100.00
70506;BME280;58032;49.820;6.274;2023-03-19T01:24:15;97326.88;;;5.86;100.00
70506;BME280;58032;49.820;6.274;2023-03-19T01:26:43;97326.13;;;6.02;100.00
70506;BME280;58032;49.820;6.274;2023-03-19T01:29:26;97323.53;;;6.12;100.00
70506;BME280;58032;49.820;6.274;2023-03-19T01:31:55;97324.50;;;6.22;100.00
70506;BME280;58032;49.820;6.274;2023-03-19T01:34:58;97325.56;;;6.28;100.00
70506;BME280;58032;49.820;6.274;2023-03-19T01:37:25;97316.28;;;6.31;100.00
70506;BME280;58032;49.820;6.274;2023-03-19T01:39:52;97318.38;;;6.27;100.00
70506;BME280;58032;49.820;6.274;2023-03-19T01:42:19;97313.84;;;6.16;100.00
70506;BME280;58032;49.820;6.274;2023-03-19T01:45:50;97315.06;;;6.15;100.00
70506;BME280;58032;49.820;6.274;2023-03-19T01:48:45;97316.81;;;6.26;100.00
70506;BME280;58032;49.820;6.274;2023-03-19T01:51:20;97310.09;;;6.23;100.00
70506;BME280;58032;49.820;6.274;2023-03-19T01:54:06;97313.75;;;6.20;100.00
70506;BME280;58032;49.820;6.274;2023-03-19T01:56:57;97320.22;;;6.33;100.00
70506;BME280;58032;49.820;6.274;2023-03-19T01:59:50;97314.53;;;6.37;100.00
70506;BME280;58032;49.820;6.274;2023-03-19T02:02:39;97320.75;;;6.28;100.00
70506;BME280;58032;49.820;6.274;2023-03-19T02:05:28;97317.00;;;6.35;100.00
70506;BME280;58032;49.820;6.274;2023-03-19T02:08:05;97309.66;;;6.41;100.00
70506;BME280;58032;49.820;6.274;2023-03-19T02:10:33;97299.84;;;6.49;100.00
70506;BME280;58032;49.820;6.274;2023-03-19T02:13:00;97300.34;;;6.61;100.00
70506;BME280;58032;49.820;6.274;2023-03-19T02:15:27;97301.72;;;6.69;100.00
70506;BME280;58032;49.820;6.274;2023-03-19T02:17:54;97304.06;;;6.71;100.00
70506;BME280;58032;49.820;6.274;2023-03-19T02:20:43;97307.31;;;6.69;100.00
70506;BME280;58032;49.820;6.274;2023-03-19T02:23:20;97300.69;;;6.63;100.00
70506;BME280;58032;49.820;6.274;2023-03-19T02:26:00;97300.59;;;6.67;100.00
70506;BME280;58032;49.820;6.274;2023-03-19T02:28:29;97295.78;;;6.67;100.00
70506;BME280;58032;49.820;6.274;2023-03-19T02:30:57;97302.06;;;6.71;100.00
70506;BME280;58032;49.820;6.274;2023-03-19T02:33:24;97302.34;;;6.77;100.00
70506;BME280;58032;49.820;6.274;2023-03-19T02:35:51;97304.88;;;6.71;100.00
70506;BME280;58032;49.820;6.274;2023-03-19T02:38:19;97304.63;;;6.65;100.00
70506;BME280;58032;49.820;6.274;2023-03-19T02:41:07;97298.44;;;6.58;100.00
70506;BME280;58032;49.820;6.274;2023-03-19T02:43:37;97290.22;;;6.51;100.00
70506;BME280;58032;49.820;6.274;2023-03-19T02:46:07;97295.00;;;6.67;100.00
70506;BME280;58032;49.820;6.274;2023-03-19T02:48:35;97298.56;;;6.67;100.00
70506;BME280;58032;49.820;6.274;2023-03-19T02:51:04;97291.69;;;6.55;100.00
70506;BME280;58032;49.820;6.274;2023-03-19T02:53:31;97298.47;;;6.41;100.00
70506;BME280;58032;49.820;6.274;2023-03-19T02:55:58;97300.91;;;6.39;100.00
70506;BME280;58032;49.820;6.274;2023-03-19T02:58:25;97299.25;;;6.25;100.00
70506;BME280;58032;49.820;6.274;2023-03-19T03:00:51;97297.06;;;6.16;100.00
70506;BME280;58032;49.820;6.274;2023-03-19T03:03:19;97296.28;;;6.16;100.00
70506;BME280;58032;49.820;6.274;2023-03-19T03:05:46;97291.75;;;6.06;100.00
70506;BME280;58032;49.820;6.274;2023-03-19T03:08:13;97295.13;;;5.97;100.00
70506;BME280;58032;49.820;6.274;2023-03-19T03:10:40;97298.09;;;5.90;100.00
70506;BME280;58032;49.820;6.274;2023-03-19T03:13:06;97297.06;;;6.00;100.00
70506;BME280;58032;49.820;6.274;2023-03-19T03:15:33;97305.56;;;5.93;100.00
70506;BME280;58032;49.820;6.274;2023-03-19T03:18:00;97291.59;;;5.93;100.00
70506;BME280;58032;49.820;6.274;2023-03-19T03:20:27;97292.75;;;5.95;100.00
70506;BME280;58032;49.820;6.274;2023-03-19T03:22:54;97307.84;;;5.98;100.00
70506;BME280;58032;49.820;6.274;2023-03-19T03:25:21;97295.75;;;6.05;100.00
70506;BME280;58032;49.820;6.274;2023-03-19T03:27:48;97307.88;;;6.14;100.00
70506;BME280;58032;49.820;6.274;2023-03-19T03:30:15;97305.28;;;6.24;100.00
70506;BME280;58032;49.820;6.274;2023-03-19T03:32:42;97315.78;;;6.20;100.00
70506;BME280;58032;49.820;6.274;2023-03-19T03:35:09;97313.31;;;6.22;100.00
70506;BME280;58032;49.820;6.274;2023-03-19T03:37:37;97319.44;;;6.16;100.00
70506;BME280;58032;49.820;6.274;2023-03-19T03:40:05;97320.66;;;6.15;100.00
70506;BME280;58032;49.820;6.274;2023-03-19T03:42:35;97322.13;;;6.20;100.00
70506;BME280;58032;49.820;6.274;2023-03-19T03:45:04;97329.91;;;6.29;100.00
70506;BME280;58032;49.820;6.274;2023-03-19T03:47:32;97327.28;;;6.38;100.00
70506;BME280;58032;49.820;6.274;2023-03-19T03:49:59;97322.13;;;6.37;100.00
70506;BME280;58032;49.820;6.274;2023-03-19T03:52:27;97321.78;;;6.34;100.00
70506;BME280;58032;49.820;6.274;2023-03-19T03:54:57;97325.53;;;6.44;100.00
70506;BME280;58032;49.820;6.274;2023-03-19T03:57:25;97327.00;;;6.49;100.00
70506;BME280;58032;49.820;6.274;2023-03-19T03:59:54;97332.88;;;6.55;100.00
70506;BME280;58032;49.820;6.274;2023-03-19T04:02:21;97330.06;;;6.55;100.00
70506;BME280;58032;49.820;6.274;2023-03-19T04:04:48;97330.06;;;6.55;100.00
70506;BME280;58032;49.820;6.274;2023-03-19T04:07:15;97332.44;;;6.56;100.00
70506;BME280;58032;49.820;6.274;2023-03-19T04:09:56;97323.44;;;6.48;100.00
70506;BME280;58032;49.820;6.274;2023-03-19T04:12:23;97322.63;;;6.48;100.00
70506;BME280;58032;49.820;6.274;2023-03-19T04:14:50;97331.75;;;6.52;100.00
70506;BME280;58032;49.820;6.274;2023-03-19T04:17:17;97332.19;;;6.51;100.00
70506;BME280;58032;49.820;6.274;2023-03-19T04:19:44;97337.88;;;6.47;100.00
70506;BME280;58032;49.820;6.274;2023-03-19T04:22:11;97325.53;;;6.44;100.00
70506;BME280;58032;49.820;6.274;2023-03-19T04:24:38;97331.47;;;6.46;100.00
70506;BME280;58032;49.820;6.274;2023-03-19T04:27:06;97339.78;;;6.50;100.00
70506;BME280;58032;49.820;6.274;2023-03-19T04:29:35;97342.94;;;6.52;100.00
70506;BME280;58032;49.820;6.274;2023-03-19T04:32:02;97341.25;;;6.55;100.00
70506;BME280;58032;49.820;6.274;2023-03-19T04:34:29;97340.22;;;6.48;100.00
70506;BME280;58032;49.820;6.274;2023-03-19T04:36:57;97338.28;;;6.45;100.00
70506;BME280;58032;49.820;6.274;2023-03-19T04:39:25;97341.97;;;6.59;100.00
70506;BME280;58032;49.820;6.274;2023-03-19T04:41:52;97349.91;;;6.60;100.00
70506;BME280;58032;49.820;6.274;2023-03-19T04:44:24;97344.94;;;6.52;100.00
70506;BME280;58032;49.820;6.274;2023-03-19T04:46:52;97346.25;;;6.47;100.00
70506;BME280;58032;49.820;6.274;2023-03-19T04:49:20;97344.25;;;6.47;100.00
70506;BME280;58032;49.820;6.274;2023-03-19T04:51:49;97339.88;;;6.46;100.00
70506;BME280;58032;49.820;6.274;2023-03-19T04:54:17;97344.59;;;6.49;100.00
70506;BME280;58032;49.820;6.274;2023-03-19T04:56:44;97348.97;;;6.34;100.00
70506;BME280;58032;49.820;6.274;2023-03-19T04:59:11;97348.59;;;6.15;100.00
70506;BME280;58032;49.820;6.274;2023-03-19T05:01:38;97350.00;;;6.24;100.00
70506;BME280;58032;49.820;6.274;2023-03-19T05:04:07;97346.53;;;6.20;100.00
70506;BME280;58032;49.820;6.274;2023-03-19T05:06:36;97353.34;;;6.18;100.00
70506;BME280;58032;49.820;6.274;2023-03-19T05:09:05;97358.84;;;6.22;100.00
70506;BME280;58032;49.820;6.274;2023-03-19T05:11:32;97358.03;;;6.22;100.00
70506;BME280;58032;49.820;6.274;2023-03-19T05:14:03;97364.25;;;6.29;100.00
70506;BME280;58032;49.820;6.274;2023-03-19T05:16:50;97363.78;;;6.14;100.00
70506;BME280;58032;49.820;6.274;2023-03-19T05:19:17;97367.41;;;6.15;100.00
70506;BME280;58032;49.820;6.274;2023-03-19T05:21:44;97364.50;;;6.18;100.00
70506;BME280;58032;49.820;6.274;2023-03-19T05:24:13;97365.56;;;6.25;100.00
70506;BME280;58032;49.820;6.274;2023-03-19T05:26:41;97367.31;;;6.35;100.00
70506;BME280;58032;49.820;6.274;2023-03-19T05:29:23;97360.06;;;6.38;100.00
70506;BME280;58032;49.820;6.274;2023-03-19T05:32:01;97364.44;;;6.39;100.00
70506;BME280;58032;49.820;6.274;2023-03-19T05:34:30;97363.63;;;6.38;100.00
70506;BME280;58032;49.820;6.274;2023-03-19T05:36:57;97373.69;;;6.36;100.00
70506;BME280;58032;49.820;6.274;2023-03-19T05:39:24;97378.16;;;6.33;100.00
70506;BME280;58032;49.820;6.274;2023-03-19T05:41:52;97373.88;;;6.28;100.00
70506;BME280;58032;49.820;6.274;2023-03-19T05:44:24;97378.50;;;6.35;100.00
70506;BME280;58032;49.820;6.274;2023-03-19T05:47:14;97373.97;;;6.41;100.00
70506;BME280;58032;49.820;6.274;2023-03-19T05:49:47;97378.25;;;6.46;100.00
70506;BME280;58032;49.820;6.274;2023-03-19T05:52:14;97371.00;;;6.48;100.00
70506;BME280;58032;49.820;6.274;2023-03-19T05:54:41;97380.78;;;6.40;100.00
70506;BME280;58032;49.820;6.274;2023-03-19T05:57:30;97382.44;;;6.38;100.00
70506;BME280;58032;49.820;6.274;2023-03-19T06:00:09;97375.63;;;6.39;100.00
70506;BME280;58032;49.820;6.274;2023-03-19T06:02:36;97385.50;;;6.43;100.00
70506;BME280;58032;49.820;6.274;2023-03-19T06:05:33;97379.56;;;6.41;100.00
70506;BME280;58032;49.820;6.274;2023-03-19T06:08:09;97379.91;;;6.43;100.00
70506;BME280;58032;49.820;6.274;2023-03-19T06:10:54;97392.47;;;6.52;100.00
70506;BME280;58032;49.820;6.274;2023-03-19T06:13:21;97393.00;;;6.63;100.00
70506;BME280;58032;49.820;6.274;2023-03-19T06:15:55;97391.09;;;6.60;100.00
70506;BME280;58032;49.820;6.274;2023-03-19T06:18:44;97387.22;;;6.37;100.00
70506;BME280;58032;49.820;6.274;2023-03-19T06:21:14;97390.13;;;6.33;100.00
70506;BME280;58032;49.820;6.274;2023-03-19T06:23:41;97394.13;;;6.32;100.00
70506;BME280;58032;49.820;6.274;2023-03-19T06:26:11;97393.19;;;6.39;100.00
70506;BME280;58032;49.820;6.274;2023-03-19T06:28:46;97394.31;;;6.42;100.00
70506;BME280;58032;49.820;6.274;2023-03-19T06:31:13;97389.53;;;6.42;100.00
70506;BME280;58032;49.820;6.274;2023-03-19T06:34:04;97399.66;;;6.69;100.00
70506;BME280;58032;49.820;6.274;2023-03-19T06:36:38;97397.09;;;6.91;100.00
70506;BME280;58032;49.820;6.274;2023-03-19T06:39:08;97398.97;;;7.11;100.00
70506;BME280;58032;49.820;6.274;2023-03-19T06:41:36;97393.28;;;7.15;100.00
70506;BME280;58032;49.820;6.274;2023-03-19T06:44:18;97398.56;;;7.12;100.00
70506;BME280;58032;49.820;6.274;2023-03-19T06:46:45;97408.88;;;7.16;100.00
70506;BME280;58032;49.820;6.274;2023-03-19T06:49:12;97412.22;;;7.10;100.00
70506;BME280;58032;49.820;6.274;2023-03-19T06:51:39;97410.25;;;6.78;100.00
70506;BME280;58032;49.820;6.274;2023-03-19T06:54:06;97409.97;;;6.56;100.00
70506;BME280;58032;49.820;6.274;2023-03-19T06:56:33;97414.84;;;6.52;100.00
70506;BME280;58032;49.820;6.274;2023-03-19T06:59:00;97415.22;;;6.54;100.00
70506;BME280;58032;49.820;6.274;2023-03-19T07:01:27;97421.16;;;6.56;100.00
70506;BME280;58032;49.820;6.274;2023-03-19T07:03:54;97413.63;;;6.53;100.00
70506;BME280;58032;49.820;6.274;2023-03-19T07:06:22;97413.63;;;6.53;100.00
70506;BME280;58032;49.820;6.274;2023-03-19T07:08:49;97416.44;;;6.53;100.00
70506;BME280;58032;49.820;6.274;2023-03-19T07:11:16;97425.28;;;6.51;100.00
70506;BME280;58032;49.820;6.274;2023-03-19T07:13:43;97427.47;;;6.43;100.00
70506;BME280;58032;49.820;6.274;2023-03-19T07:16:10;97427.78;;;6.45;100.00
70506;BME280;58032;49.820;6.274;2023-03-19T07:18:37;97432.44;;;6.52;100.00
70506;BME280;58032;49.820;6.274;2023-03-19T07:21:04;97435.59;;;6.54;100.00
70506;BME280;58032;49.820;6.274;2023-03-19T07:23:31;97436.47;;;6.51;100.00
70506;BME280;58032;49.820;6.274;2023-03-19T07:25:58;97439.09;;;6.58;100.00
70506;BME280;58032;49.820;6.274;2023-03-19T07:28:25;97447.22;;;6.69;100.00
70506;BME280;58032;49.820;6.274;2023-03-19T07:30:52;97440.41;;;6.87;100.00
70506;BME280;58032;49.820;6.274;2023-03-19T07:33:19;97441.25;;;7.17;100.00
70506;BME280;58032;49.820;6.274;2023-03-19T07:35:48;97446.22;;;7.09;100.00
70506;BME280;58032;49.820;6.274;2023-03-19T07:38:15;97448.44;;;7.01;100.00
70506;BME280;58032;49.820;6.274;2023-03-19T07:40:42;97450.28;;;6.91;100.00
70506;BME280;58032;49.820;6.274;2023-03-19T07:43:20;97446.63;;;6.78;100.00
70506;BME280;58032;49.820;6.274;2023-03-19T07:45:47;97444.34;;;6.89;100.00
70506;BME280;58032;49.820;6.274;2023-03-19T07:48:14;97441.00;;;6.94;100.00
70506;BME280;58032;49.820;6.274;2023-03-19T07:50:41;97442.94;;;6.97;100.00
70506;BME280;58032;49.820;6.274;2023-03-19T07:53:08;97450.28;;;7.08;100.00
70506;BME280;58032;49.820;6.274;2023-03-19T07:55:36;97452.44;;;7.17;100.00
70506;BME280;58032;49.820;6.274;2023-03-19T07:58:04;97448.16;;;7.12;100.00
70506;BME280;58032;49.820;6.274;2023-03-19T08:00:31;97454.56;;;7.12;100.00
70506;BME280;58032;49.820;6.274;2023-03-19T08:02:59;97451.38;;;7.27;100.00
70506;BME280;58032;49.820;6.274;2023-03-19T08:05:26;97447.53;;;7.21;100.00
70506;BME280;58032;49.820;6.274;2023-03-19T08:07:53;97448.03;;;7.32;100.00
70506;BME280;58032;49.820;6.274;2023-03-19T08:10:20;97456.59;;;7.41;100.00
70506;BME280;58032;49.820;6.274;2023-03-19T08:12:47;97444.56;;;7.57;100.00
70506;BME280;58032;49.820;6.274;2023-03-19T08:15:14;97443.56;;;7.64;100.00
70506;BME280;58032;49.820;6.274;2023-03-19T08:17:41;97447.66;;;7.76;100.00
70506;BME280;58032;49.820;6.274;2023-03-19T08:20:10;97443.63;;;7.77;100.00
70506;BME280;58032;49.820;6.274;2023-03-19T08:22:38;97450.41;;;8.05;100.00
70506;BME280;58032;49.820;6.274;2023-03-19T08:25:06;97439.31;;;8.92;100.00
70506;BME280;58032;49.820;6.274;2023-03-19T08:27:33;97438.06;;;10.08;100.00
70506;BME280;58032;49.820;6.274;2023-03-19T08:30:05;97432.16;;;9.84;100.00
70506;BME280;58032;49.820;6.274;2023-03-19T08:32:33;97433.72;;;9.62;100.00
70506;BME280;58032;49.820;6.274;2023-03-19T08:35:00;97425.72;;;9.39;100.00
70506;BME280;58032;49.820;6.274;2023-03-19T08:37:27;97433.34;;;9.03;100.00
70506;BME280;58032;49.820;6.274;2023-03-19T08:39:54;97441.03;;;8.51;100.00
70506;BME280;58032;49.820;6.274;2023-03-19T08:42:21;97445.28;;;8.30;100.00
70506;BME280;58032;49.820;6.274;2023-03-19T08:44:49;97442.13;;;8.28;100.00
70506;BME280;58032;49.820;6.274;2023-03-19T08:47:16;97451.44;;;8.12;100.00
70506;BME280;58032;49.820;6.274;2023-03-19T08:49:43;97456.00;;;8.05;100.00
70506;BME280;58032;49.820;6.274;2023-03-19T08:52:10;97449.13;;;7.81;100.00
70506;BME280;58032;49.820;6.274;2023-03-19T08:54:37;97452.34;;;7.79;100.00
70506;BME280;58032;49.820;6.274;2023-03-19T08:57:04;97453.88;;;7.67;100.00
70506;BME280;58032;49.820;6.274;2023-03-19T08:59:31;97459.94;;;7.66;100.00
70506;BME280;58032;49.820;6.274;2023-03-19T09:02:00;97456.69;;;7.67;100.00
70506;BME280;58032;49.820;6.274;2023-03-19T09:04:27;97454.63;;;7.84;100.00
70506;BME280;58032;49.820;6.274;2023-03-19T09:06:54;97456.66;;;7.97;100.00
70506;BME280;58032;49.820;6.274;2023-03-19T09:09:23;97464.53;;;8.02;100.00
70506;BME280;58032;49.820;6.274;2023-03-19T09:11:50;97465.06;;;7.97;100.00
70506;BME280;58032;49.820;6.274;2023-03-19T09:14:17;97465.66;;;8.04;100.00
70506;BME280;58032;49.820;6.274;2023-03-19T09:16:46;97468.91;;;8.03;100.00
70506;BME280;58032;49.820;6.274;2023-03-19T09:19:13;97464.16;;;7.87;100.00
70506;BME280;58032;49.820;6.274;2023-03-19T09:21:41;97473.72;;;8.02;100.00
70506;BME280;58032;49.820;6.274;2023-03-19T09:24:08;97468.78;;;8.06;100.00
70506;BME280;58032;49.820;6.274;2023-03-19T09:26:34;97472.97;;;8.15;100.00
70506;BME280;58032;49.820;6.274;2023-03-19T09:29:01;97476.69;;;8.24;100.00
70506;BME280;58032;49.820;6.274;2023-03-19T09:31:29;97480.09;;;8.45;100.00
70506;BME280;58032;49.820;6.274;2023-03-19T09:33:57;97485.06;;;8.67;100.00
70506;BME280;58032;49.820;6.274;2023-03-19T09:36:24;97468.41;;;8.98;100.00
70506;BME280;58032;49.820;6.274;2023-03-19T09:38:51;97470.09;;;8.83;100.00
70506;BME280;58032;49.820;6.274;2023-03-19T09:44:13;97476.28;;;9.39;100.00
70506;BME280;58032;49.820;6.274;2023-03-19T09:47:37;97474.09;;;9.56;100.00
70506;BME280;58032;49.820;6.274;2023-03-19T09:49:46;97472.66;;;9.51;100.00
70506;BME280;58032;49.820;6.274;2023-03-19T09:52:30;97473.22;;;9.11;100.00
70506;BME280;58032;49.820;6.274;2023-03-19T09:55:08;97476.81;;;8.98;100.00
70506;BME280;58032;49.820;6.274;2023-03-19T09:57:43;97477.75;;;8.95;100.00
70506;BME280;58032;49.820;6.274;2023-03-19T10:00:32;97480.91;;;8.71;100.00
70506;BME280;58032;49.820;6.274;2023-03-19T10:03:12;97475.59;;;8.86;100.00
70506;BME280;58032;49.820;6.274;2023-03-19T10:08:48;97484.88;;;8.32;100.00
70506;BME280;58032;49.820;6.274;2023-03-19T10:17:41;97486.41;;;8.49;100.00
70506;BME280;58032;49.820;6.274;2023-03-19T10:20:28;97489.28;;;8.46;100.00
70506;BME280;58032;49.820;6.274;2023-03-19T10:23:13;97485.50;;;8.52;100.00
70506;BME280;58032;49.820;6.274;2023-03-19T10:25:45;97497.41;;;8.57;100.00
70506;BME280;58032;49.820;6.274;2023-03-19T10:28:15;97490.69;;;8.67;100.00
70506;BME280;58032;49.820;6.274;2023-03-19T10:33:42;97495.72;;;8.85;100.00
70506;BME280;58032;49.820;6.274;2023-03-19T10:36:10;97491.69;;;8.86;100.00
70506;BME280;58032;49.820;6.274;2023-03-19T10:38:41;97498.06;;;8.74;100.00
70506;BME280;58032;49.820;6.274;2023-03-19T10:41:37;97513.44;;;8.82;100.00
70506;BME280;58032;49.820;6.274;2023-03-19T10:44:15;97504.59;;;8.70;100.00
70506;BME280;58032;49.820;6.274;2023-03-19T10:46:46;97498.28;;;9.05;100.00
70506;BME280;58032;49.820;6.274;2023-03-19T10:49:14;97501.38;;;9.20;100.00
70506;BME280;58032;49.820;6.274;2023-03-19T10:51:46;97499.25;;;9.24;100.00
70506;BME280;58032;49.820;6.274;2023-03-19T10:54:24;97504.19;;;9.20;100.00
70506;BME280;58032;49.820;6.274;2023-03-19T10:56:57;97505.09;;;9.30;100.00
70506;BME280;58032;49.820;6.274;2023-03-19T10:59:31;97509.78;;;9.46;100.00
70506;BME280;58032;49.820;6.274;2023-03-19T11:02:22;97507.47;;;9.31;100.00
70506;BME280;58032;49.820;6.274;2023-03-19T11:07:38;97515.94;;;9.54;100.00
70506;BME280;58032;49.820;6.274;2023-03-19T11:10:13;97508.56;;;9.34;100.00
70506;BME280;58032;49.820;6.274;2023-03-19T11:12:46;97509.41;;;9.09;100.00
70506;BME280;58032;49.820;6.274;2023-03-19T11:15:21;97515.53;;;9.29;100.00
70506;BME280;58032;49.820;6.274;2023-03-19T11:17:55;97510.88;;;9.13;100.00
70506;BME280;58032;49.820;6.274;2023-03-19T11:20:34;97512.06;;;9.25;100.00
70506;BME280;58032;49.820;6.274;2023-03-19T11:23:10;97517.59;;;9.03;100.00
70506;BME280;58032;49.820;6.274;2023-03-19T11:25:40;97518.06;;;8.89;100.00
70506;BME280;58032;49.820;6.274;2023-03-19T11:28:11;97521.09;;;8.68;100.00
70506;BME280;58032;49.820;6.274;2023-03-19T11:34:00;97527.06;;;8.83;100.00
70506;BME280;58032;49.820;6.274;2023-03-19T11:39:27;97514.44;;;9.14;100.00
70506;BME280;58032;49.820;6.274;2023-03-19T11:45:25;97526.34;;;9.31;100.00
70506;BME280;58032;49.820;6.274;2023-03-19T11:48:19;97524.91;;;9.00;100.00
70506;BME280;58032;49.820;6.274;2023-03-19T11:51:29;97515.47;;;8.55;100.00
70506;BME280;58032;49.820;6.274;2023-03-19T11:54:04;97518.16;;;8.46;100.00
70506;BME280;58032;49.820;6.274;2023-03-19T11:56:49;97518.78;;;8.37;100.00
70506;BME280;58032;49.820;6.274;2023-03-19T12:10:17;97524.59;;;8.30;100.00
70506;BME280;58032;49.820;6.274;2023-03-19T12:13:04;97516.50;;;8.62;100.00
70506;BME280;58032;49.820;6.274;2023-03-19T12:15:52;97514.59;;;8.59;100.00
70506;BME280;58032;49.820;6.274;2023-03-19T12:26:48;97509.63;;;9.01;100.00
70506;BME280;58032;49.820;6.274;2023-03-19T12:34:37;97499.59;;;9.61;100.00
70506;BME280;58032;49.820;6.274;2023-03-19T12:37:12;97486.03;;;9.60;100.00
70506;BME280;58032;49.820;6.274;2023-03-19T12:39:51;97489.81;;;9.66;100.00
70506;BME280;58032;49.820;6.274;2023-03-19T12:42:20;97488.53;;;9.80;100.00
70506;BME280;58032;49.820;6.274;2023-03-19T12:44:52;97483.03;;;9.98;100.00
70506;BME280;58032;49.820;6.274;2023-03-19T12:47:27;97484.47;;;10.25;100.00
70506;BME280;58032;49.820;6.274;2023-03-19T12:50:03;97481.84;;;10.63;100.00
70506;BME280;58032;49.820;6.274;2023-03-19T12:52:47;97481.72;;;10.66;100.00
70506;BME280;58032;49.820;6.274;2023-03-19T12:55:38;97474.03;;;10.35;100.00
70506;BME280;58032;49.820;6.274;2023-03-19T13:01:17;97482.81;;;10.69;100.00
70506;BME280;58032;49.820;6.274;2023-03-19T13:04:00;97471.41;;;11.22;100.00
70506;BME280;58032;49.820;6.274;2023-03-19T13:06:35;97475.63;;;11.27;100.00
70506;BME280;58032;49.820;6.274;2023-03-19T13:09:37;97469.53;;;11.38;100.00
70506;BME280;58032;49.820;6.274;2023-03-19T13:12:21;97475.13;;;11.01;100.00
70506;BME280;58032;49.820;6.274;2023-03-19T13:23:21;97457.31;;;11.22;100.00
70506;BME280;58032;49.820;6.274;2023-03-19T13:25:50;97459.38;;;10.81;100.00
70506;BME280;58032;49.820;6.274;2023-03-19T13:28:32;97465.94;;;10.69;100.00
70506;BME280;58032;49.820;6.274;2023-03-19T13:31:03;97463.00;;;10.41;100.00
70506;BME280;58032;49.820;6.274;2023-03-19T13:33:32;97464.16;;;10.53;100.00
70506;BME280;58032;49.820;6.274;2023-03-19T13:36:03;97458.00;;;10.45;100.00
70506;BME280;58032;49.820;6.274;2023-03-19T13:38:43;97460.91;;;10.73;100.00
70506;BME280;58032;49.820;6.274;2023-03-19T13:46:48;97450.72;;;11.16;100.00
70506;BME280;58032;49.820;6.274;2023-03-19T13:49:23;97448.50;;;11.11;100.00
70506;BME280;58032;49.820;6.274;2023-03-19T13:51:56;97445.25;;;11.87;100.00
70506;BME280;58032;49.820;6.274;2023-03-19T13:54:39;97439.78;;;11.65;100.00
70506;BME280;58032;49.820;6.274;2023-03-19T13:59:41;97443.19;;;11.13;100.00
70506;BME280;58032;49.820;6.274;2023-03-19T14:05:06;97450.94;;;10.72;100.00
70506;BME280;58032;49.820;6.274;2023-03-19T14:07:36;97457.91;;;10.58;100.00
70506;BME280;58032;49.820;6.274;2023-03-19T14:10:07;97455.28;;;10.64;100.00
70506;BME280;58032;49.820;6.274;2023-03-19T14:12:43;97455.16;;;10.76;100.00
70506;BME280;58032;49.820;6.274;2023-03-19T14:15:15;97443.16;;;10.95;100.00
70506;BME280;58032;49.820;6.274;2023-03-19T14:17:54;97444.59;;;10.99;100.00
70506;BME280;58032;49.820;6.274;2023-03-19T14:20:28;97454.69;;;11.37;100.00
70506;BME280;58032;49.820;6.274;2023-03-19T14:28:55;97438.50;;;11.10;100.00
70506;BME280;58032;49.820;6.274;2023-03-19T14:31:42;97435.09;;;11.34;100.00
70506;BME280;58032;49.820;6.274;2023-03-19T14:34:25;97431.97;;;11.69;100.00
70506;BME280;58032;49.820;6.274;2023-03-19T14:37:02;97442.31;;;11.53;100.00
70506;BME280;58032;49.820;6.274;2023-03-19T14:39:38;97440.97;;;10.99;100.00
70506;BME280;58032;49.820;6.274;2023-03-19T14:42:22;97441.47;;;11.16;100.00
70506;BME280;58032;49.820;6.274;2023-03-19T14:51:29;97439.41;;;13.04;100.00